sensor_id;sensor_type;location;lat;lon;timestamp;P1;durP1;ratioP1;P2;durP2;ratioP2
5299;SDS011;70402;42.670;23.258;2023-07-31T00:00:14;2.80;;;2.27;;
5299;SDS011;70402;42.670;23.258;2023-07-31T00:02:41;2.10;;;1.83;;
5299;SDS011;70402;42.670;23.258;2023-07-31T00:05:08;2.60;;;2.10;;
5299;SDS011;70402;42.670;23.258;2023-07-31T00:07:34;4.57;;;2.63;;
5299;SDS011;70402;42.670;23.258;2023-07-31T00:10:00;2.97;;;2.23;;
5299;SDS011;70402;42.670;23.258;2023-07-31T00:12:26;4.30;;;2.23;;
5299;SDS011;70402;42.670;23.258;2023-07-31T00:14:51;3.40;;;2.50;;
5299;SDS011;70402;42.670;23.258;2023-07-31T00:17:17;3.10;;;2.30;;
5299;SDS011;70402;42.670;23.258;2023-07-31T00:19:43;4.00;;;2.77;;
5299;SDS011;70402;42.670;23.258;2023-07-31T00:22:11;3.70;;;2.77;;
5299;SDS011;70402;42.670;23.258;2023-07-31T00:24:37;3.70;;;2.57;;
5299;SDS011;70402;42.670;23.258;2023-07-31T00:27:03;4.30;;;3.00;;
5299;SDS011;70402;42.670;23.258;2023-07-31T00:29:29;4.00;;;3.00;;
5299;SDS011;70402;42.670;23.258;2023-07-31T00:31:56;4.00;;;3.00;;
5299;SDS011;70402;42.670;23.258;2023-07-31T00:34:21;4.00;;;3.30;;
5299;SDS011;70402;42.670;23.258;2023-07-31T00:36:47;5.17;;;3.23;;
5299;SDS011;70402;42.670;23.258;2023-07-31T00:39:13;4.90;;;3.50;;
5299;SDS011;70402;42.670;23.258;2023-07-31T00:41:39;4.80;;;3.20;;
5299;SDS011;70402;42.670;23.258;2023-07-31T00:44:05;6.43;;;3.30;;
5299;SDS011;70402;42.670;23.258;2023-07-31T00:46:30;4.40;;;3.40;;
5299;SDS011;70402;42.670;23.258;2023-07-31T00:48:56;4.53;;;3.53;;
5299;SDS011;70402;42.670;23.258;2023-07-31T00:51:22;6.43;;;4.50;;
5299;SDS011;70402;42.670;23.258;2023-07-31T00:53:48;5.43;;;4.13;;
5299;SDS011;70402;42.670;23.258;2023-07-31T00:56:14;5.63;;;4.23;;
5299;SDS011;70402;42.670;23.258;2023-07-31T00:58:41;7.47;;;5.20;;
5299;SDS011;70402;42.670;23.258;2023-07-31T01:01:07;5.20;;;3.57;;
5299;SDS011;70402;42.670;23.258;2023-07-31T01:03:33;6.80;;;5.40;;
5299;SDS011;70402;42.670;23.258;2023-07-31T01:06:09;6.43;;;4.93;;
5299;SDS011;70402;42.670;23.258;2023-07-31T01:11:19;9.53;;;6.50;;
5299;SDS011;70402;42.670;23.258;2023-07-31T01:13:51;9.43;;;6.97;;
5299;SDS011;70402;42.670;23.258;2023-07-31T01:16:17;9.03;;;6.60;;
5299;SDS011;70402;42.670;23.258;2023-07-31T01:18:43;11.07;;;7.10;;
5299;SDS011;70402;42.670;23.258;2023-07-31T01:24:19;10.10;;;7.77;;
5299;SDS011;70402;42.670;23.258;2023-07-31T01:26:47;12.87;;;8.60;;
5299;SDS011;70402;42.670;23.258;2023-07-31T01:29:30;12.77;;;8.50;;
5299;SDS011;70402;42.670;23.258;2023-07-31T01:32:17;14.23;;;10.03;;
5299;SDS011;70402;42.670;23.258;2023-07-31T01:34:43;15.53;;;9.77;;
5299;SDS011;70402;42.670;23.258;2023-07-31T01:37:09;16.30;;;10.50;;
5299;SDS011;70402;42.670;23.258;2023-07-31T01:39:35;13.80;;;9.20;;
5299;SDS011;70402;42.670;23.258;2023-07-31T01:42:01;16.60;;;10.87;;
5299;SDS011;70402;42.670;23.258;2023-07-31T01:44:27;14.97;;;10.77;;
5299;SDS011;70402;42.670;23.258;2023-07-31T01:46:53;15.50;;;11.27;;
5299;SDS011;70402;42.670;23.258;2023-07-31T01:49:19;18.47;;;11.50;;
5299;SDS011;70402;42.670;23.258;2023-07-31T01:51:45;17.13;;;12.27;;
5299;SDS011;70402;42.670;23.258;2023-07-31T01:54:11;16.43;;;11.97;;
5299;SDS011;70402;42.670;23.258;2023-07-31T01:56:36;17.30;;;11.90;;
5299;SDS011;70402;42.670;23.258;2023-07-31T01:59:02;16.13;;;10.43;;
5299;SDS011;70402;42.670;23.258;2023-07-31T02:01:28;18.63;;;11.83;;
5299;SDS011;70402;42.670;23.258;2023-07-31T02:03:54;17.83;;;12.37;;
5299;SDS011;70402;42.670;23.258;2023-07-31T02:06:20;19.70;;;11.73;;
5299;SDS011;70402;42.670;23.258;2023-07-31T02:08:46;18.03;;;11.73;;
5299;SDS011;70402;42.670;23.258;2023-07-31T02:11:11;15.60;;;11.50;;
5299;SDS011;70402;42.670;23.258;2023-07-31T02:13:37;18.57;;;12.87;;
5299;SDS011;70402;42.670;23.258;2023-07-31T02:16:03;17.30;;;12.70;;
5299;SDS011;70402;42.670;23.258;2023-07-31T02:18:29;17.63;;;11.30;;
5299;SDS011;70402;42.670;23.258;2023-07-31T02:20:55;17.00;;;11.40;;
5299;SDS011;70402;42.670;23.258;2023-07-31T02:23:21;17.70;;;11.77;;
5299;SDS011;70402;42.670;23.258;2023-07-31T02:25:47;18.37;;;12.20;;
5299;SDS011;70402;42.670;23.258;2023-07-31T02:28:13;15.13;;;10.50;;
5299;SDS011;70402;42.670;23.258;2023-07-31T02:30:39;16.87;;;11.10;;
5299;SDS011;70402;42.670;23.258;2023-07-31T02:33:05;17.67;;;10.90;;
5299;SDS011;70402;42.670;23.258;2023-07-31T02:35:31;16.83;;;11.40;;
5299;SDS011;70402;42.670;23.258;2023-07-31T02:37:57;15.17;;;10.80;;
5299;SDS011;70402;42.670;23.258;2023-07-31T02:40:22;15.90;;;10.97;;
5299;SDS011;70402;42.670;23.258;2023-07-31T02:42:48;17.63;;;11.10;;
5299;SDS011;70402;42.670;23.258;2023-07-31T02:45:14;19.23;;;11.70;;
5299;SDS011;70402;42.670;23.258;2023-07-31T02:47:40;19.63;;;12.17;;
5299;SDS011;70402;42.670;23.258;2023-07-31T02:50:06;15.13;;;10.93;;
5299;SDS011;70402;42.670;23.258;2023-07-31T02:52:32;15.70;;;10.90;;
5299;SDS011;70402;42.670;23.258;2023-07-31T02:54:58;16.80;;;11.63;;
5299;SDS011;70402;42.670;23.258;2023-07-31T02:57:24;15.57;;;11.00;;
5299;SDS011;70402;42.670;23.258;2023-07-31T02:59:50;17.73;;;11.87;;
5299;SDS011;70402;42.670;23.258;2023-07-31T03:02:15;16.93;;;11.87;;
5299;SDS011;70402;42.670;23.258;2023-07-31T03:04:41;17.90;;;11.60;;
5299;SDS011;70402;42.670;23.258;2023-07-31T03:07:07;17.83;;;11.40;;
5299;SDS011;70402;42.670;23.258;2023-07-31T03:09:33;18.73;;;11.80;;
5299;SDS011;70402;42.670;23.258;2023-07-31T03:11:59;18.77;;;12.37;;
5299;SDS011;70402;42.670;23.258;2023-07-31T03:14:24;14.47;;;10.47;;
5299;SDS011;70402;42.670;23.258;2023-07-31T03:16:51;18.80;;;12.00;;
5299;SDS011;70402;42.670;23.258;2023-07-31T03:19:17;16.10;;;11.73;;
5299;SDS011;70402;42.670;23.258;2023-07-31T03:21:43;19.27;;;12.10;;
5299;SDS011;70402;42.670;23.258;2023-07-31T03:24:09;17.20;;;12.50;;
5299;SDS011;70402;42.670;23.258;2023-07-31T03:26:37;18.27;;;12.43;;
5299;SDS011;70402;42.670;23.258;2023-07-31T03:29:03;19.30;;;12.60;;
5299;SDS011;70402;42.670;23.258;2023-07-31T03:31:29;15.33;;;11.07;;
5299;SDS011;70402;42.670;23.258;2023-07-31T03:33:55;17.87;;;11.53;;
5299;SDS011;70402;42.670;23.258;2023-07-31T03:36:20;17.40;;;11.13;;
5299;SDS011;70402;42.670;23.258;2023-07-31T03:38:46;17.90;;;11.93;;
5299;SDS011;70402;42.670;23.258;2023-07-31T03:41:12;17.73;;;11.67;;
5299;SDS011;70402;42.670;23.258;2023-07-31T03:43:38;16.70;;;11.20;;
5299;SDS011;70402;42.670;23.258;2023-07-31T03:46:04;19.50;;;11.73;;
5299;SDS011;70402;42.670;23.258;2023-07-31T03:48:30;18.50;;;12.33;;
5299;SDS011;70402;42.670;23.258;2023-07-31T03:50:56;16.57;;;10.77;;
5299;SDS011;70402;42.670;23.258;2023-07-31T03:53:21;17.00;;;12.23;;
5299;SDS011;70402;42.670;23.258;2023-07-31T03:55:47;16.43;;;11.30;;
5299;SDS011;70402;42.670;23.258;2023-07-31T03:58:13;18.43;;;11.50;;
5299;SDS011;70402;42.670;23.258;2023-07-31T04:00:39;19.20;;;11.97;;
5299;SDS011;70402;42.670;23.258;2023-07-31T04:03:06;16.57;;;11.07;;
5299;SDS011;70402;42.670;23.258;2023-07-31T04:05:32;18.50;;;12.70;;
5299;SDS011;70402;42.670;23.258;2023-07-31T04:07:58;19.20;;;11.90;;
5299;SDS011;70402;42.670;23.258;2023-07-31T04:10:24;21.20;;;12.83;;
5299;SDS011;70402;42.670;23.258;2023-07-31T04:12:50;19.27;;;11.80;;
5299;SDS011;70402;42.670;23.258;2023-07-31T04:15:16;22.97;;;11.67;;
5299;SDS011;70402;42.670;23.258;2023-07-31T04:17:42;20.60;;;12.67;;
5299;SDS011;70402;42.670;23.258;2023-07-31T04:20:08;22.73;;;12.57;;
5299;SDS011;70402;42.670;23.258;2023-07-31T04:22:34;18.53;;;12.13;;
5299;SDS011;70402;42.670;23.258;2023-07-31T04:25:00;16.40;;;11.07;;
5299;SDS011;70402;42.670;23.258;2023-07-31T04:27:26;18.83;;;11.60;;
5299;SDS011;70402;42.670;23.258;2023-07-31T04:29:51;18.53;;;12.50;;
5299;SDS011;70402;42.670;23.258;2023-07-31T04:32:17;18.10;;;11.70;;
5299;SDS011;70402;42.670;23.258;2023-07-31T04:34:44;17.50;;;11.53;;
5299;SDS011;70402;42.670;23.258;2023-07-31T04:37:10;16.27;;;10.60;;
5299;SDS011;70402;42.670;23.258;2023-07-31T04:39:36;16.10;;;11.10;;
5299;SDS011;70402;42.670;23.258;2023-07-31T04:42:02;13.87;;;9.57;;
5299;SDS011;70402;42.670;23.258;2023-07-31T04:44:28;16.80;;;10.73;;
5299;SDS011;70402;42.670;23.258;2023-07-31T04:46:55;14.23;;;9.63;;
5299;SDS011;70402;42.670;23.258;2023-07-31T04:49:21;14.53;;;10.30;;
5299;SDS011;70402;42.670;23.258;2023-07-31T04:51:47;17.00;;;9.50;;
5299;SDS011;70402;42.670;23.258;2023-07-31T04:54:13;14.57;;;10.03;;
5299;SDS011;70402;42.670;23.258;2023-07-31T04:56:40;15.53;;;10.53;;
5299;SDS011;70402;42.670;23.258;2023-07-31T04:59:06;16.80;;;10.93;;
5299;SDS011;70402;42.670;23.258;2023-07-31T05:01:32;15.70;;;9.37;;
5299;SDS011;70402;42.670;23.258;2023-07-31T05:03:58;14.90;;;9.77;;
5299;SDS011;70402;42.670;23.258;2023-07-31T05:06:24;17.93;;;10.33;;
5299;SDS011;70402;42.670;23.258;2023-07-31T05:08:49;14.23;;;9.33;;
5299;SDS011;70402;42.670;23.258;2023-07-31T05:11:15;12.90;;;9.50;;
5299;SDS011;70402;42.670;23.258;2023-07-31T05:13:41;14.07;;;9.53;;
5299;SDS011;70402;42.670;23.258;2023-07-31T05:16:07;13.40;;;9.70;;
5299;SDS011;70402;42.670;23.258;2023-07-31T05:18:33;13.17;;;9.43;;
5299;SDS011;70402;42.670;23.258;2023-07-31T05:20:58;12.27;;;9.13;;
5299;SDS011;70402;42.670;23.258;2023-07-31T05:23:24;11.67;;;8.17;;
5299;SDS011;70402;42.670;23.258;2023-07-31T05:25:50;13.67;;;8.80;;
5299;SDS011;70402;42.670;23.258;2023-07-31T05:28:16;13.50;;;8.77;;
5299;SDS011;70402;42.670;23.258;2023-07-31T05:30:42;12.50;;;8.43;;
5299;SDS011;70402;42.670;23.258;2023-07-31T05:33:08;8.80;;;6.50;;
5299;SDS011;70402;42.670;23.258;2023-07-31T05:35:34;9.77;;;6.77;;
5299;SDS011;70402;42.670;23.258;2023-07-31T05:38:00;8.53;;;6.40;;
5299;SDS011;70402;42.670;23.258;2023-07-31T05:40:26;8.10;;;6.00;;
5299;SDS011;70402;42.670;23.258;2023-07-31T05:42:54;9.83;;;6.13;;
5299;SDS011;70402;42.670;23.258;2023-07-31T05:45:20;7.83;;;5.33;;
5299;SDS011;70402;42.670;23.258;2023-07-31T05:47:46;7.77;;;5.93;;
5299;SDS011;70402;42.670;23.258;2023-07-31T05:50:12;5.57;;;4.23;;
5299;SDS011;70402;42.670;23.258;2023-07-31T05:52:39;6.90;;;5.03;;
5299;SDS011;70402;42.670;23.258;2023-07-31T05:55:05;6.00;;;4.43;;
5299;SDS011;70402;42.670;23.258;2023-07-31T05:57:31;7.03;;;5.13;;
5299;SDS011;70402;42.670;23.258;2023-07-31T05:59:57;6.37;;;4.53;;
5299;SDS011;70402;42.670;23.258;2023-07-31T06:02:23;7.40;;;4.63;;
5299;SDS011;70402;42.670;23.258;2023-07-31T06:04:49;6.30;;;4.37;;
5299;SDS011;70402;42.670;23.258;2023-07-31T06:07:15;7.63;;;4.30;;
5299;SDS011;70402;42.670;23.258;2023-07-31T06:09:41;7.40;;;4.50;;
5299;SDS011;70402;42.670;23.258;2023-07-31T06:12:07;4.97;;;3.33;;
5299;SDS011;70402;42.670;23.258;2023-07-31T06:14:34;6.63;;;4.13;;
5299;SDS011;70402;42.670;23.258;2023-07-31T06:17:00;4.40;;;2.67;;
5299;SDS011;70402;42.670;23.258;2023-07-31T06:19:26;4.50;;;3.30;;
5299;SDS011;70402;42.670;23.258;2023-07-31T06:21:52;4.70;;;3.10;;
5299;SDS011;70402;42.670;23.258;2023-07-31T06:24:18;2.90;;;2.53;;
5299;SDS011;70402;42.670;23.258;2023-07-31T06:26:45;5.80;;;2.77;;
5299;SDS011;70402;42.670;23.258;2023-07-31T06:29:12;4.30;;;3.50;;
5299;SDS011;70402;42.670;23.258;2023-07-31T06:31:37;5.50;;;2.93;;
5299;SDS011;70402;42.670;23.258;2023-07-31T06:34:03;4.07;;;3.20;;
5299;SDS011;70402;42.670;23.258;2023-07-31T06:36:29;4.40;;;3.27;;
5299;SDS011;70402;42.670;23.258;2023-07-31T06:38:55;5.33;;;3.03;;
5299;SDS011;70402;42.670;23.258;2023-07-31T06:41:21;4.73;;;3.33;;
5299;SDS011;70402;42.670;23.258;2023-07-31T06:43:47;4.90;;;3.07;;
5299;SDS011;70402;42.670;23.258;2023-07-31T06:46:13;4.23;;;2.60;;
5299;SDS011;70402;42.670;23.258;2023-07-31T06:48:39;3.83;;;2.60;;
5299;SDS011;70402;42.670;23.258;2023-07-31T06:51:05;3.10;;;2.07;;
5299;SDS011;70402;42.670;23.258;2023-07-31T06:53:30;2.80;;;2.23;;
5299;SDS011;70402;42.670;23.258;2023-07-31T06:55:56;2.87;;;2.00;;
5299;SDS011;70402;42.670;23.258;2023-07-31T06:58:22;3.70;;;2.37;;
5299;SDS011;70402;42.670;23.258;2023-07-31T07:00:48;2.43;;;2.10;;
5299;SDS011;70402;42.670;23.258;2023-07-31T07:03:17;3.00;;;2.07;;
5299;SDS011;70402;42.670;23.258;2023-07-31T07:05:44;4.20;;;2.60;;
5299;SDS011;70402;42.670;23.258;2023-07-31T07:08:10;3.40;;;2.20;;
5299;SDS011;70402;42.670;23.258;2023-07-31T07:10:36;3.40;;;2.43;;
5299;SDS011;70402;42.670;23.258;2023-07-31T07:13:02;2.93;;;1.90;;
5299;SDS011;70402;42.670;23.258;2023-07-31T07:15:28;4.23;;;1.60;;
5299;SDS011;70402;42.670;23.258;2023-07-31T07:17:54;3.87;;;2.30;;
5299;SDS011;70402;42.670;23.258;2023-07-31T07:20:23;2.93;;;1.97;;
5299;SDS011;70402;42.670;23.258;2023-07-31T07:22:49;3.20;;;2.30;;
5299;SDS011;70402;42.670;23.258;2023-07-31T07:25:15;2.63;;;2.10;;
5299;SDS011;70402;42.670;23.258;2023-07-31T07:27:41;3.60;;;2.50;;
5299;SDS011;70402;42.670;23.258;2023-07-31T07:30:07;2.17;;;1.67;;
5299;SDS011;70402;42.670;23.258;2023-07-31T07:32:34;2.77;;;2.00;;
5299;SDS011;70402;42.670;23.258;2023-07-31T07:35:00;2.57;;;1.73;;
5299;SDS011;70402;42.670;23.258;2023-07-31T07:37:26;2.53;;;2.00;;
5299;SDS011;70402;42.670;23.258;2023-07-31T07:39:52;2.77;;;2.00;;
5299;SDS011;70402;42.670;23.258;2023-07-31T07:42:18;8.83;;;2.30;;
5299;SDS011;70402;42.670;23.258;2023-07-31T07:44:44;2.50;;;1.80;;
5299;SDS011;70402;42.670;23.258;2023-07-31T07:47:10;2.90;;;1.93;;
5299;SDS011;70402;42.670;23.258;2023-07-31T07:49:36;2.80;;;2.10;;
5299;SDS011;70402;42.670;23.258;2023-07-31T07:52:02;4.87;;;2.00;;
5299;SDS011;70402;42.670;23.258;2023-07-31T07:54:29;3.17;;;2.30;;
5299;SDS011;70402;42.670;23.258;2023-07-31T07:56:55;3.37;;;2.20;;
5299;SDS011;70402;42.670;23.258;2023-07-31T07:59:21;3.60;;;2.30;;
5299;SDS011;70402;42.670;23.258;2023-07-31T08:01:47;2.83;;;1.90;;
5299;SDS011;70402;42.670;23.258;2023-07-31T08:04:13;2.87;;;1.80;;
5299;SDS011;70402;42.670;23.258;2023-07-31T08:06:39;2.60;;;2.10;;
5299;SDS011;70402;42.670;23.258;2023-07-31T08:09:05;2.93;;;2.27;;
5299;SDS011;70402;42.670;23.258;2023-07-31T08:11:34;2.60;;;1.63;;
5299;SDS011;70402;42.670;23.258;2023-07-31T08:14:00;2.13;;;1.70;;
5299;SDS011;70402;42.670;23.258;2023-07-31T08:16:26;2.13;;;1.60;;
5299;SDS011;70402;42.670;23.258;2023-07-31T08:18:53;1.70;;;1.40;;
5299;SDS011;70402;42.670;23.258;2023-07-31T08:21:18;2.90;;;2.17;;
5299;SDS011;70402;42.670;23.258;2023-07-31T08:23:44;3.53;;;1.80;;
5299;SDS011;70402;42.670;23.258;2023-07-31T08:26:15;1.93;;;1.50;;
5299;SDS011;70402;42.670;23.258;2023-07-31T08:28:41;3.07;;;1.80;;
5299;SDS011;70402;42.670;23.258;2023-07-31T08:31:07;2.77;;;1.80;;
5299;SDS011;70402;42.670;23.258;2023-07-31T08:33:33;2.70;;;1.73;;
5299;SDS011;70402;42.670;23.258;2023-07-31T08:35:59;2.93;;;1.90;;
5299;SDS011;70402;42.670;23.258;2023-07-31T08:38:26;3.50;;;1.87;;
5299;SDS011;70402;42.670;23.258;2023-07-31T08:40:54;2.57;;;1.93;;
5299;SDS011;70402;42.670;23.258;2023-07-31T08:43:22;2.70;;;1.77;;
5299;SDS011;70402;42.670;23.258;2023-07-31T08:45:51;1.97;;;1.40;;
5299;SDS011;70402;42.670;23.258;2023-07-31T08:48:17;2.37;;;1.73;;
5299;SDS011;70402;42.670;23.258;2023-07-31T08:50:47;2.97;;;1.63;;
5299;SDS011;70402;42.670;23.258;2023-07-31T08:53:13;2.30;;;1.53;;
5299;SDS011;70402;42.670;23.258;2023-07-31T08:55:40;2.23;;;1.83;;
5299;SDS011;70402;42.670;23.258;2023-07-31T08:58:06;1.93;;;1.60;;
5299;SDS011;70402;42.670;23.258;2023-07-31T09:00:32;2.73;;;1.63;;
5299;SDS011;70402;42.670;23.258;2023-07-31T09:03:02;2.60;;;1.80;;
5299;SDS011;70402;42.670;23.258;2023-07-31T09:05:30;2.00;;;1.63;;
5299;SDS011;70402;42.670;23.258;2023-07-31T09:07:57;1.60;;;1.10;;
5299;SDS011;70402;42.670;23.258;2023-07-31T09:10:23;2.93;;;1.63;;
5299;SDS011;70402;42.670;23.258;2023-07-31T09:12:52;1.47;;;1.20;;
5299;SDS011;70402;42.670;23.258;2023-07-31T09:15:18;2.10;;;1.53;;
5299;SDS011;70402;42.670;23.258;2023-07-31T09:17:44;2.07;;;1.77;;
5299;SDS011;70402;42.670;23.258;2023-07-31T09:20:14;2.80;;;1.40;;
5299;SDS011;70402;42.670;23.258;2023-07-31T09:22:45;2.10;;;1.60;;
5299;SDS011;70402;42.670;23.258;2023-07-31T09:25:15;2.87;;;2.03;;
5299;SDS011;70402;42.670;23.258;2023-07-31T09:30:18;2.10;;;1.60;;
5299;SDS011;70402;42.670;23.258;2023-07-31T09:32:45;2.10;;;1.70;;
5299;SDS011;70402;42.670;23.258;2023-07-31T09:35:22;2.40;;;1.67;;
5299;SDS011;70402;42.670;23.258;2023-07-31T09:37:55;1.83;;;1.67;;
5299;SDS011;70402;42.670;23.258;2023-07-31T09:42:58;1.77;;;1.33;;
5299;SDS011;70402;42.670;23.258;2023-07-31T09:45:25;1.90;;;1.60;;
5299;SDS011;70402;42.670;23.258;2023-07-31T09:47:52;1.70;;;1.40;;
5299;SDS011;70402;42.670;23.258;2023-07-31T09:50:19;1.43;;;1.30;;
5299;SDS011;70402;42.670;23.258;2023-07-31T09:52:46;1.97;;;1.53;;
5299;SDS011;70402;42.670;23.258;2023-07-31T09:55:12;1.90;;;1.50;;
5299;SDS011;70402;42.670;23.258;2023-07-31T09:57:39;1.73;;;1.30;;
5299;SDS011;70402;42.670;23.258;2023-07-31T10:00:08;2.27;;;1.30;;
5299;SDS011;70402;42.670;23.258;2023-07-31T10:02:35;1.40;;;1.30;;
5299;SDS011;70402;42.670;23.258;2023-07-31T10:05:02;1.27;;;1.07;;
5299;SDS011;70402;42.670;23.258;2023-07-31T10:07:30;2.13;;;1.50;;
5299;SDS011;70402;42.670;23.258;2023-07-31T10:09:57;3.40;;;2.37;;
5299;SDS011;70402;42.670;23.258;2023-07-31T10:12:25;1.87;;;1.30;;
5299;SDS011;70402;42.670;23.258;2023-07-31T10:14:55;1.87;;;1.40;;
5299;SDS011;70402;42.670;23.258;2023-07-31T10:17:22;2.23;;;1.40;;
5299;SDS011;70402;42.670;23.258;2023-07-31T10:19:51;2.90;;;1.97;;
5299;SDS011;70402;42.670;23.258;2023-07-31T10:22:18;1.50;;;1.20;;
5299;SDS011;70402;42.670;23.258;2023-07-31T10:24:47;1.93;;;1.50;;
5299;SDS011;70402;42.670;23.258;2023-07-31T10:27:14;1.83;;;1.53;;
5299;SDS011;70402;42.670;23.258;2023-07-31T10:29:41;2.10;;;1.40;;
5299;SDS011;70402;42.670;23.258;2023-07-31T10:32:09;1.50;;;1.30;;
5299;SDS011;70402;42.670;23.258;2023-07-31T10:34:37;1.80;;;1.23;;
5299;SDS011;70402;42.670;23.258;2023-07-31T10:39:59;1.30;;;1.10;;
5299;SDS011;70402;42.670;23.258;2023-07-31T10:45:03;1.67;;;1.13;;
5299;SDS011;70402;42.670;23.258;2023-07-31T10:47:31;1.93;;;1.10;;
5299;SDS011;70402;42.670;23.258;2023-07-31T10:50:12;2.20;;;1.37;;
5299;SDS011;70402;42.670;23.258;2023-07-31T10:52:48;2.07;;;1.10;;
5299;SDS011;70402;42.670;23.258;2023-07-31T10:55:26;1.20;;;1.00;;
5299;SDS011;70402;42.670;23.258;2023-07-31T10:57:54;1.13;;;1.03;;
5299;SDS011;70402;42.670;23.258;2023-07-31T11:00:25;2.00;;;1.57;;
5299;SDS011;70402;42.670;23.258;2023-07-31T11:02:56;1.20;;;0.80;;
5299;SDS011;70402;42.670;23.258;2023-07-31T11:08:23;4.07;;;1.27;;
5299;SDS011;70402;42.670;23.258;2023-07-31T11:10:51;1.30;;;1.20;;
5299;SDS011;70402;42.670;23.258;2023-07-31T11:13:39;0.80;;;0.70;;
5299;SDS011;70402;42.670;23.258;2023-07-31T11:16:06;1.40;;;1.30;;
5299;SDS011;70402;42.670;23.258;2023-07-31T11:18:33;1.10;;;1.00;;
5299;SDS011;70402;42.670;23.258;2023-07-31T11:20:58;1.03;;;0.93;;
5299;SDS011;70402;42.670;23.258;2023-07-31T11:23:25;1.60;;;1.20;;
5299;SDS011;70402;42.670;23.258;2023-07-31T11:25:51;1.70;;;1.20;;
5299;SDS011;70402;42.670;23.258;2023-07-31T11:28:17;1.80;;;1.20;;
5299;SDS011;70402;42.670;23.258;2023-07-31T11:30:45;1.33;;;1.23;;
5299;SDS011;70402;42.670;23.258;2023-07-31T11:33:12;1.80;;;1.40;;
5299;SDS011;70402;42.670;23.258;2023-07-31T11:35:47;2.00;;;1.40;;
5299;SDS011;70402;42.670;23.258;2023-07-31T11:38:24;2.10;;;1.53;;
5299;SDS011;70402;42.670;23.258;2023-07-31T11:40:57;3.00;;;1.97;;
5299;SDS011;70402;42.670;23.258;2023-07-31T11:43:25;1.50;;;1.37;;
5299;SDS011;70402;42.670;23.258;2023-07-31T11:45:52;2.40;;;1.70;;
5299;SDS011;70402;42.670;23.258;2023-07-31T11:48:23;2.10;;;1.63;;
5299;SDS011;70402;42.670;23.258;2023-07-31T11:50:52;1.80;;;1.60;;
5299;SDS011;70402;42.670;23.258;2023-07-31T11:53:27;2.33;;;1.87;;
5299;SDS011;70402;42.670;23.258;2023-07-31T11:56:02;3.00;;;1.70;;
5299;SDS011;70402;42.670;23.258;2023-07-31T11:58:32;1.60;;;1.50;;
5299;SDS011;70402;42.670;23.258;2023-07-31T12:01:00;2.73;;;1.97;;
5299;SDS011;70402;42.670;23.258;2023-07-31T12:03:27;1.90;;;1.70;;
5299;SDS011;70402;42.670;23.258;2023-07-31T12:05:53;2.80;;;2.10;;
5299;SDS011;70402;42.670;23.258;2023-07-31T12:08:23;2.10;;;1.90;;
5299;SDS011;70402;42.670;23.258;2023-07-31T12:10:50;2.83;;;2.00;;
5299;SDS011;70402;42.670;23.258;2023-07-31T12:13:23;2.17;;;1.87;;
5299;SDS011;70402;42.670;23.258;2023-07-31T12:15:58;3.13;;;2.40;;
5299;SDS011;70402;42.670;23.258;2023-07-31T12:18:26;4.40;;;2.80;;
5299;SDS011;70402;42.670;23.258;2023-07-31T12:20:56;2.70;;;2.17;;
5299;SDS011;70402;42.670;23.258;2023-07-31T12:23:27;3.50;;;3.20;;
5299;SDS011;70402;42.670;23.258;2023-07-31T12:28:29;3.97;;;3.10;;
5299;SDS011;70402;42.670;23.258;2023-07-31T12:30:57;4.33;;;3.20;;
5299;SDS011;70402;42.670;23.258;2023-07-31T12:33:29;3.30;;;2.50;;
5299;SDS011;70402;42.670;23.258;2023-07-31T12:36:00;4.70;;;3.40;;
5299;SDS011;70402;42.670;23.258;2023-07-31T12:38:28;4.30;;;2.67;;
5299;SDS011;70402;42.670;23.258;2023-07-31T12:40:54;4.63;;;3.10;;
5299;SDS011;70402;42.670;23.258;2023-07-31T12:43:20;5.87;;;3.67;;
5299;SDS011;70402;42.670;23.258;2023-07-31T12:45:46;3.83;;;3.00;;
5299;SDS011;70402;42.670;23.258;2023-07-31T12:48:12;3.77;;;2.87;;
5299;SDS011;70402;42.670;23.258;2023-07-31T12:50:39;3.40;;;2.90;;
5299;SDS011;70402;42.670;23.258;2023-07-31T12:53:05;5.30;;;3.27;;
5299;SDS011;70402;42.670;23.258;2023-07-31T12:55:34;5.47;;;3.47;;
5299;SDS011;70402;42.670;23.258;2023-07-31T12:58:02;3.40;;;2.83;;
5299;SDS011;70402;42.670;23.258;2023-07-31T13:00:30;3.43;;;2.60;;
5299;SDS011;70402;42.670;23.258;2023-07-31T13:02:56;3.70;;;3.10;;
5299;SDS011;70402;42.670;23.258;2023-07-31T13:05:23;3.70;;;3.07;;
5299;SDS011;70402;42.670;23.258;2023-07-31T13:07:48;3.73;;;3.20;;
5299;SDS011;70402;42.670;23.258;2023-07-31T13:10:15;3.90;;;3.23;;
5299;SDS011;70402;42.670;23.258;2023-07-31T13:12:40;4.73;;;3.50;;
5299;SDS011;70402;42.670;23.258;2023-07-31T13:15:07;5.60;;;3.90;;
5299;SDS011;70402;42.670;23.258;2023-07-31T13:17:33;4.10;;;3.00;;
5299;SDS011;70402;42.670;23.258;2023-07-31T13:19:59;4.40;;;3.10;;
5299;SDS011;70402;42.670;23.258;2023-07-31T13:22:25;6.40;;;3.33;;
5299;SDS011;70402;42.670;23.258;2023-07-31T13:24:52;4.17;;;2.77;;
5299;SDS011;70402;42.670;23.258;2023-07-31T13:27:18;2.60;;;2.37;;
5299;SDS011;70402;42.670;23.258;2023-07-31T13:29:49;2.70;;;2.40;;
5299;SDS011;70402;42.670;23.258;2023-07-31T13:32:19;4.17;;;2.53;;
5299;SDS011;70402;42.670;23.258;2023-07-31T13:34:46;2.33;;;2.03;;
5299;SDS011;70402;42.670;23.258;2023-07-31T13:37:12;3.10;;;2.57;;
5299;SDS011;70402;42.670;23.258;2023-07-31T13:39:39;3.37;;;2.33;;
5299;SDS011;70402;42.670;23.258;2023-07-31T13:42:06;2.63;;;2.33;;
5299;SDS011;70402;42.670;23.258;2023-07-31T13:44:36;3.00;;;2.30;;
5299;SDS011;70402;42.670;23.258;2023-07-31T13:47:05;4.00;;;2.13;;
5299;SDS011;70402;42.670;23.258;2023-07-31T13:49:32;3.23;;;2.57;;
5299;SDS011;70402;42.670;23.258;2023-07-31T13:51:58;2.70;;;2.33;;
5299;SDS011;70402;42.670;23.258;2023-07-31T13:54:24;4.13;;;2.20;;
5299;SDS011;70402;42.670;23.258;2023-07-31T13:56:53;3.50;;;2.80;;
5299;SDS011;70402;42.670;23.258;2023-07-31T13:59:19;3.30;;;2.80;;
5299;SDS011;70402;42.670;23.258;2023-07-31T14:01:45;2.73;;;2.20;;
5299;SDS011;70402;42.670;23.258;2023-07-31T14:04:12;3.03;;;2.20;;
5299;SDS011;70402;42.670;23.258;2023-07-31T14:06:38;3.70;;;2.80;;
5299;SDS011;70402;42.670;23.258;2023-07-31T14:09:04;3.57;;;2.43;;
5299;SDS011;70402;42.670;23.258;2023-07-31T14:11:33;5.63;;;2.80;;
5299;SDS011;70402;42.670;23.258;2023-07-31T14:13:59;3.13;;;2.30;;
5299;SDS011;70402;42.670;23.258;2023-07-31T14:16:26;2.87;;;2.20;;
5299;SDS011;70402;42.670;23.258;2023-07-31T14:18:53;3.00;;;2.40;;
5299;SDS011;70402;42.670;23.258;2023-07-31T14:21:19;3.20;;;2.20;;
5299;SDS011;70402;42.670;23.258;2023-07-31T14:23:46;3.20;;;2.50;;
5299;SDS011;70402;42.670;23.258;2023-07-31T14:26:12;3.40;;;2.60;;
5299;SDS011;70402;42.670;23.258;2023-07-31T14:28:38;2.63;;;2.10;;
5299;SDS011;70402;42.670;23.258;2023-07-31T14:31:04;2.90;;;2.03;;
5299;SDS011;70402;42.670;23.258;2023-07-31T14:33:30;2.20;;;1.80;;
5299;SDS011;70402;42.670;23.258;2023-07-31T14:35:56;2.13;;;1.90;;
5299;SDS011;70402;42.670;23.258;2023-07-31T14:38:21;3.43;;;1.70;;
5299;SDS011;70402;42.670;23.258;2023-07-31T14:40:47;2.77;;;2.10;;
5299;SDS011;70402;42.670;23.258;2023-07-31T14:43:13;2.10;;;1.87;;
5299;SDS011;70402;42.670;23.258;2023-07-31T14:45:39;1.70;;;1.60;;
5299;SDS011;70402;42.670;23.258;2023-07-31T14:48:05;3.00;;;1.80;;
5299;SDS011;70402;42.670;23.258;2023-07-31T14:50:31;2.00;;;1.80;;
5299;SDS011;70402;42.670;23.258;2023-07-31T14:52:57;2.50;;;1.97;;
5299;SDS011;70402;42.670;23.258;2023-07-31T14:55:24;2.23;;;1.90;;
5299;SDS011;70402;42.670;23.258;2023-07-31T14:57:50;2.20;;;1.70;;
5299;SDS011;70402;42.670;23.258;2023-07-31T15:00:16;2.40;;;1.97;;